Time;durP1;ratioP1;P1;durP2;ratioP2;P2;SDS_P1;SDS_P2;PMS_P1;PMS_P2;Temp;Humidity;BMP_temperature;BMP_pressure;BME280_temperature;BME280_humidity;BME280_pressure;Samples;Min_cycle;Max_cycle;Signal;HPM_P1;HPM_P2
2022/06/20 00:00:49;;;;;;;5.15;1.95;;;25.90;76.90;;;;;;4981928;28;20129;-89
2022/06/20 00:03:31;;;;;;;3.70;2.25;;;25.90;77.10;;;;;;4976128;28;20113;-89
2022/06/20 00:05:59;;;;;;;5.63;2.28;;;25.80;77.40;;;;;;4976596;28;20038;-89
2022/06/20 00:08:28;;;;;;;4.30;2.15;;;25.80;77.50;;;;;;4980251;28;20019;-90
2022/06/20 00:10:59;;;;;;;5.45;2.47;;;25.80;77.80;;;;;;4971844;28;20054;-90
2022/06/20 00:13:34;;;;;;;4.72;2.20;;;25.80;78.00;;;;;;4976255;28;20042;-88
2022/06/20 00:16:06;;;;;;;4.10;2.03;;;25.70;78.50;;;;;;4988441;28;20097;-90
2022/06/20 00:18:44;;;;;;;;;;;;;;;;;;;;;
2022/06/20 00:21:16;;;;;;;4.43;2.25;;;25.70;79.00;;;;;;4997041;28;20033;-89
2022/06/20 00:23:45;;;;;;;4.45;1.80;;;25.60;79.30;;;;;;5002821;28;20031;-89
2022/06/20 00:26:23;;;;;;;5.38;2.10;;;25.60;79.70;;;;;;4998440;28;20045;-89
2022/06/20 00:29:01;;;;;;;10.35;2.20;;;25.60;79.90;;;;;;4994454;28;20153;-90
2022/06/20 00:31:34;;;;;;;4.72;2.22;;;25.60;80.30;;;;;;4984361;28;20022;-90
2022/06/20 00:34:01;;;;;;;5.40;2.17;;;25.50;80.50;;;;;;4992929;28;20025;-90
2022/06/20 00:36:32;;;;;;;6.40;2.55;;;25.50;80.80;;;;;;4977443;28;20114;-90
2022/06/20 00:39:00;;;;;;;3.80;2.03;;;25.40;81.00;;;;;;4977880;28;20033;-89
2022/06/20 00:41:38;;;;;;;6.70;2.05;;;25.40;81.20;;;;;;4975842;28;20030;-89
2022/06/20 00:44:04;;;;;;;4.53;1.85;;;25.20;81.30;;;;;;4974339;28;20051;-90
2022/06/20 00:46:39;;;;;;;4.95;2.42;;;25.20;81.60;;;;;;4999041;28;20022;-89
2022/06/20 00:49:47;;;;;;;3.22;2.03;;;25.30;82.10;;;;;;4978890;28;20026;-90
2022/06/20 00:52:44;;;;;;;5.78;1.98;;;25.10;82.30;;;;;;4969502;28;20034;-90
2022/06/20 00:55:59;;;;;;;5.55;2.20;;;25.00;82.20;;;;;;4991065;28;20033;-89
2022/06/20 00:58:46;;;;;;;4.15;2.22;;;25.00;82.50;;;;;;4954529;28;20035;-89
2022/06/20 01:01:14;;;;;;;5.55;2.17;;;24.90;83.00;;;;;;5001420;23;20039;-88
2022/06/20 01:03:45;;;;;;;3.72;2.00;;;24.90;83.00;;;;;;4974645;28;20030;-88
2022/06/20 01:06:25;;;;;;;4.63;2.63;;;25.00;83.40;;;;;;4974996;28;20490;-88
2022/06/20 01:08:57;;;;;;;6.60;2.00;;;25.00;83.60;;;;;;4972981;28;20026;-88
2022/06/20 01:11:26;;;;;;;4.80;2.03;;;24.90;83.80;;;;;;4984540;28;20055;-88
2022/06/20 01:14:22;;;;;;;5.38;2.55;;;24.90;85.30;;;;;;4958006;28;20487;-90
2022/06/20 01:16:52;;;;;;;11.30;3.15;;;24.70;89.60;;;;;;4971673;28;20389;-89
2022/06/20 01:20:04;;;;;;;7.28;2.88;;;24.60;91.40;;;;;;4945139;28;20755;-88
2022/06/20 01:22:43;;;;;;;6.25;2.78;;;24.30;93.60;;;;;;4949208;28;20092;-87
2022/06/20 01:25:18;;;;;;;7.45;2.90;;;24.10;95.90;;;;;;4969439;28;20053;-87
2022/06/20 01:27:47;;;;;;;7.47;2.65;;;23.90;98.20;;;;;;4971371;28;20153;-87
2022/06/20 01:30:13;;;;;;;9.57;3.08;;;23.80;99.90;;;;;;4955699;28;20416;-87
2022/06/20 01:32:39;;;;;;;8.95;3.22;;;23.60;99.90;;;;;;4956035;28;20062;-87
2022/06/20 01:35:08;;;;;;;5.35;2.65;;;23.60;99.90;;;;;;4956167;28;20061;-88
2022/06/20 01:37:40;;;;;;;5.53;2.47;;;23.50;99.90;;;;;;4957887;28;20062;-87
2022/06/20 01:40:09;;;;;;;6.95;3.13;;;23.40;99.90;;;;;;4955438;28;20030;-88
2022/06/20 01:42:36;;;;;;;6.70;2.53;;;23.40;99.90;;;;;;4957379;28;20041;-87
2022/06/20 01:45:04;;;;;;;8.32;2.67;;;23.40;99.90;;;;;;4971052;28;20089;-87
2022/06/20 01:47:31;;;;;;;5.68;2.78;;;23.30;99.90;;;;;;4973385;28;20031;-87
2022/06/20 01:50:06;;;;;;;6.45;3.00;;;23.30;99.90;;;;;;4972481;28;20025;-88
2022/06/20 01:52:40;;;;;;;6.70;2.80;;;23.30;99.90;;;;;;4972649;28;20062;-88
2022/06/20 01:55:12;;;;;;;5.45;2.70;;;23.10;99.90;;;;;;4953490;28;20439;-87
2022/06/20 01:57:42;;;;;;;6.50;3.00;;;23.00;99.90;;;;;;4954686;28;20042;-87
2022/06/20 02:00:17;;;;;;;5.75;2.67;;;23.00;99.90;;;;;;4954048;28;20145;-87
2022/06/20 02:02:48;;;;;;;6.18;3.03;;;23.00;99.90;;;;;;4953011;28;20031;-87
2022/06/20 02:05:19;;;;;;;4.63;2.67;;;22.90;99.90;;;;;;4954871;28;20492;-88
2022/06/20 02:07:45;;;;;;;9.32;2.83;;;22.90;99.90;;;;;;4954867;28;20042;-88
2022/06/20 02:10:16;;;;;;;6.50;2.83;;;22.90;99.90;;;;;;4953712;28;20118;-88
2022/06/20 02:12:45;;;;;;;7.50;2.95;;;22.90;99.90;;;;;;4975971;28;20120;-88
2022/06/20 02:15:19;;;;;;;6.60;2.70;;;22.90;99.90;;;;;;4957287;28;20035;-88
2022/06/20 02:17:47;;;;;;;6.55;3.15;;;22.90;99.90;;;;;;4948115;28;20063;-88
2022/06/20 02:20:26;;;;;;;5.82;3.15;;;22.90;99.90;;;;;;4951204;28;20106;-87
2022/06/20 02:22:59;;;;;;;5.30;2.50;;;23.00;99.90;;;;;;4952060;28;20031;-88
2022/06/20 02:25:32;;;;;;;5.10;2.55;;;23.00;99.90;;;;;;4958128;28;20027;-88
2022/06/20 02:28:12;;;;;;;6.75;3.63;;;23.00;99.90;;;;;;4969806;28;20031;-88
2022/06/20 02:30:42;;;;;;;6.47;2.88;;;23.00;99.90;;;;;;4957053;28;20113;-89
2022/06/20 02:33:18;;;;;;;5.15;2.90;;;23.00;99.90;;;;;;4954098;28;20026;-89
2022/06/20 02:35:44;;;;;;;5.15;2.63;;;23.00;99.90;;;;;;4967914;28;20775;-88
2022/06/20 02:38:10;;;;;;;4.32;2.70;;;23.00;99.90;;;;;;4954394;28;20169;-88
2022/06/20 02:40:41;;;;;;;5.85;3.33;;;22.90;99.90;;;;;;4952066;28;20035;-88
2022/06/20 02:43:41;;;;;;;5.97;3.33;;;22.90;99.90;;;;;;4954272;28;20029;-88
2022/06/20 02:46:13;;;;;;;6.70;3.20;;;22.90;99.90;;;;;;4951038;28;20474;-88
2022/06/20 02:48:54;;;;;;;8.02;3.53;;;22.70;99.90;;;;;;4971855;28;20491;-90
2022/06/20 02:51:28;;;;;;;5.00;2.38;;;22.50;99.90;;;;;;4971875;28;20399;-89
2022/06/20 02:54:00;;;;;;;6.97;2.55;;;22.20;99.90;;;;;;4972253;28;20519;-90
2022/06/20 02:56:33;;;;;;;6.28;2.47;;;22.30;99.90;;;;;;4959558;28;20030;-90
2022/06/20 02:59:27;;;;;;;6.97;2.88;;;22.10;99.90;;;;;;4952827;28;20704;-88
2022/06/20 03:02:01;;;;;;;6.30;3.30;;;22.20;99.90;;;;;;4969472;28;20385;-88
2022/06/20 03:04:40;;;;;;;5.82;2.63;;;22.20;99.90;;;;;;4969558;28;20038;-88
2022/06/20 03:07:16;;;;;;;4.20;2.30;;;22.20;99.90;;;;;;4966495;28;20396;-87
2022/06/20 03:09:46;;;;;;;4.90;2.20;;;22.20;99.90;;;;;;4974411;28;20038;-88
2022/06/20 03:12:13;;;;;;;5.45;2.53;;;22.20;99.90;;;;;;4950646;28;20027;-88
2022/06/20 03:14:46;;;;;;;5.20;2.33;;;22.00;99.90;;;;;;4953693;28;20150;-88
2022/06/20 03:17:14;;;;;;;7.10;3.22;;;22.00;99.90;;;;;;4951722;28;20031;-87
2022/06/20 03:19:44;;;;;;;5.45;2.17;;;22.00;99.90;;;;;;4948700;28;20031;-88
2022/06/20 03:22:15;;;;;;;7.78;2.72;;;22.00;99.90;;;;;;4953102;28;20514;-89
2022/06/20 03:24:48;;;;;;;7.93;2.53;;;21.90;99.90;;;;;;4969155;28;20070;-89
2022/06/20 03:27:23;;;;;;;10.25;2.00;;;21.90;99.90;;;;;;4959912;28;20038;-89
2022/06/20 03:29:54;;;;;;;7.60;2.58;;;21.90;99.90;;;;;;4959118;28;20039;-88
2022/06/20 03:32:22;;;;;;;5.95;2.97;;;21.90;99.90;;;;;;4975426;28;20031;-88
2022/06/20 03:34:53;;;;;;;5.97;2.35;;;21.90;99.90;;;;;;4956135;28;20403;-89
2022/06/20 03:37:20;;;;;;;7.73;2.67;;;21.80;99.90;;;;;;4955779;28;20046;-87
2022/06/20 03:39:47;;;;;;;6.35;3.28;;;21.80;99.90;;;;;;4956205;28;20030;-87
2022/06/20 03:42:15;;;;;;;7.88;2.45;;;21.70;99.90;;;;;;4957284;28;20033;-88
2022/06/20 03:45:37;;;;;;;;;;;;;;;;;;;;;
2022/06/20 03:48:19;;;;;;;6.60;2.88;;;21.60;99.90;;;;;;4898941;29;20060;-89
2022/06/20 03:50:58;;;;;;;12.82;3.42;;;21.60;99.90;;;;;;4883611;29;20046;-89
2022/06/20 03:53:38;;;;;;;8.18;2.75;;;21.50;99.90;;;;;;4891572;28;20133;-90
2022/06/20 03:56:27;;;;;;;5.97;2.72;;;21.50;99.90;;;;;;4959709;28;20044;-88
2022/06/20 03:59:16;;;;;;;6.93;2.35;;;21.40;99.90;;;;;;4971073;28;20030;-88
2022/06/20 04:02:01;;;;;;;6.53;2.53;;;21.40;99.90;;;;;;4954804;28;20130;-88
2022/06/20 04:04:46;;;;;;;6.18;2.83;;;21.40;99.90;;;;;;4959019;28;20088;-88
2022/06/20 04:07:23;;;;;;;5.70;2.85;;;21.40;99.90;;;;;;4974991;28;20026;-88
2022/06/20 04:13:26;;;;;;;6.10;2.78;;;21.30;99.90;;;;;;4976707;28;20069;-90
2022/06/20 04:16:05;;;;;;;7.32;3.10;;;21.20;99.90;;;;;;4973019;28;20058;-89
2022/06/20 04:19:08;;;;;;;7.75;2.95;;;21.10;99.90;;;;;;4955741;28;20153;-88
2022/06/20 04:21:56;;;;;;;6.40;2.75;;;21.10;99.90;;;;;;4953612;28;20034;-89
2022/06/20 04:24:37;;;;;;;4.75;2.45;;;21.20;99.90;;;;;;4980348;28;20033;-89
2022/06/20 04:27:49;;;;;;;6.07;3.00;;;21.10;99.90;;;;;;4960890;28;20030;-88
2022/06/20 04:30:34;;;;;;;5.47;2.50;;;20.90;99.90;;;;;;4896499;29;20036;-89
2022/06/20 04:33:14;;;;;;;4.65;2.35;;;20.90;99.90;;;;;;4956433;28;20047;-88
2022/06/20 04:35:48;;;;;;;6.30;2.20;;;20.90;99.90;;;;;;4957113;28;20027;-88
2022/06/20 04:38:27;;;;;;;5.47;2.85;;;20.80;99.90;;;;;;4971975;28;20110;-88
2022/06/20 04:41:08;;;;;;;8.20;2.58;;;21.00;99.90;;;;;;4960560;28;20035;-88
2022/06/20 04:43:42;;;;;;;5.32;2.80;;;21.00;99.90;;;;;;4955051;28;20074;-88
2022/06/20 04:46:53;;;;;;;5.68;2.70;;;21.10;99.90;;;;;;4972166;28;20026;-87
2022/06/20 04:49:27;;;;;;;6.80;2.42;;;21.00;99.90;;;;;;4912735;28;20499;-87
2022/06/20 04:51:58;;;;;;;6.43;2.97;;;20.90;99.90;;;;;;4953811;28;20105;-88
2022/06/20 04:54:24;;;;;;;;;;;20.90;99.90;;;;;;4956880;28;20022;-88
2022/06/20 04:57:23;;;;;;;5.40;2.88;;;20.80;99.90;;;;;;4952865;28;19909;-88
2022/06/20 04:59:56;;;;;;;5.18;2.60;;;20.80;99.90;;;;;;4969982;28;20413;-88
2022/06/20 05:02:26;;;;;;;4.95;2.88;;;21.00;99.90;;;;;;4970788;28;20065;-88
2022/06/20 05:05:04;;;;;;;4.40;2.60;;;21.10;99.90;;;;;;4954526;28;20030;-87
2022/06/20 05:07:35;;;;;;;5.70;2.65;;;21.10;99.90;;;;;;4957519;28;20043;-88
2022/06/20 05:10:35;;;;;;;5.53;2.53;;;21.20;99.90;;;;;;4969216;28;20031;-88
2022/06/20 05:13:44;;;;;;;5.15;2.63;;;21.30;99.90;;;;;;4948245;28;20090;-87
2022/06/20 05:16:17;;;;;;;5.82;2.63;;;21.30;99.90;;;;;;4897301;28;20031;-87
2022/06/20 05:18:47;;;;;;;5.30;2.40;;;21.40;99.90;;;;;;4963341;28;20109;-87
2022/06/20 05:21:19;;;;;;;6.60;2.95;;;21.30;99.90;;;;;;4954582;28;20034;-88
2022/06/20 05:23:51;;;;;;;4.28;2.47;;;21.50;99.90;;;;;;4973360;28;20038;-87
2022/06/20 05:26:23;;;;;;;8.63;4.50;;;21.50;99.90;;;;;;4976907;28;20038;-87
2022/06/20 05:28:52;;;;;;;8.73;3.05;;;21.60;99.90;;;;;;4959699;28;20023;-87
2022/06/20 05:31:30;;;;;;;5.72;2.95;;;21.50;99.90;;;;;;4960889;28;20542;-87
2022/06/20 05:34:19;;;;;;;5.47;2.80;;;21.50;99.90;;;;;;4956015;28;20030;-87
2022/06/20 05:37:00;;;;;;;7.88;2.80;;;21.50;99.90;;;;;;4950196;28;20039;-86
2022/06/20 05:39:44;;;;;;;6.63;2.90;;;21.60;99.90;;;;;;4947919;28;20038;-87
2022/06/20 05:42:16;;;;;;;5.93;2.65;;;21.60;99.90;;;;;;4953298;28;20054;-88
2022/06/20 05:44:42;;;;;;;6.88;2.58;;;21.60;99.90;;;;;;4973656;28;20105;-89
2022/06/20 05:47:32;;;;;;;8.75;3.20;;;21.60;99.90;;;;;;4969667;28;20102;-88
2022/06/20 05:50:14;;;;;;;5.35;2.80;;;21.40;99.90;;;;;;4949217;28;20124;-88
2022/06/20 05:52:42;;;;;;;8.25;2.38;;;21.40;99.90;;;;;;4970343;28;20424;-89
2022/06/20 05:55:24;;;;;;;7.30;3.25;;;21.30;99.90;;;;;;4953498;28;20100;-87
2022/06/20 05:57:50;;;;;;;;;;;21.30;99.90;;;;;;4971261;28;20483;-87
2022/06/20 06:00:16;;;;;;;5.70;2.83;;;21.20;99.90;;;;;;4955874;28;19928;-87
2022/06/20 06:03:03;;;;;;;7.53;2.80;;;21.30;99.90;;;;;;4971993;28;20038;-87
2022/06/20 06:05:37;;;;;;;5.28;2.72;;;21.40;99.90;;;;;;4953101;28;20023;-88
2022/06/20 06:08:38;;;;;;;6.47;2.58;;;21.40;99.90;;;;;;4954050;28;20019;-88
2022/06/20 06:11:25;;;;;;;6.20;2.65;;;21.50;99.90;;;;;;4954574;28;20051;-88
2022/06/20 06:14:20;;;;;;;4.50;2.40;;;21.60;99.90;;;;;;4956108;28;20026;-88
2022/06/20 06:17:08;;;;;;;7.00;3.08;;;21.70;99.90;;;;;;4958867;28;20043;-88
2022/06/20 06:19:58;;;;;;;6.35;2.70;;;21.80;99.90;;;;;;4961020;28;20376;-88
2022/06/20 06:22:25;;;;;;;5.28;2.35;;;22.00;99.90;;;;;;4957770;28;20045;-88
2022/06/20 06:24:58;;;;;;;5.32;2.60;;;22.10;99.90;;;;;;4972079;28;20027;-89
2022/06/20 06:27:31;;;;;;;4.57;2.72;;;22.30;99.90;;;;;;4958170;28;20027;-88
2022/06/20 06:30:19;;;;;;;4.65;1.92;;;22.40;99.90;;;;;;4977825;28;20114;-89
2022/06/20 06:33:04;;;;;;;4.20;2.30;;;22.40;99.90;;;;;;4975691;28;20163;-89
2022/06/20 06:35:35;;;;;;;5.90;2.70;;;22.50;99.90;;;;;;4954602;28;20115;-88
2022/06/20 06:38:05;;;;;;;;;;;22.60;99.90;;;;;;4954712;28;20038;-89
2022/06/20 06:40:50;;;;;;;6.60;2.22;;;22.70;99.90;;;;;;4955588;28;20394;-89
2022/06/20 06:43:24;;;;;;;4.70;2.50;;;22.80;99.90;;;;;;4952466;28;20755;-89
2022/06/20 06:45:56;;;;;;;4.97;2.60;;;22.90;99.90;;;;;;4955299;28;20022;-89
2022/06/20 06:48:43;;;;;;;4.82;2.30;;;23.00;99.90;;;;;;4952163;28;20057;-89
2022/06/20 06:51:14;;;;;;;5.57;2.28;;;23.10;99.90;;;;;;4970118;28;20019;-89
2022/06/20 06:53:53;;;;;;;;;;;23.30;99.90;;;;;;4956079;28;20027;-88
2022/06/20 06:56:21;;;;;;;5.65;2.92;;;23.20;99.90;;;;;;4958350;28;19910;-90
2022/06/20 06:58:53;;;;;;;8.05;4.18;;;23.30;99.90;;;;;;4957270;28;20510;-89
2022/06/20 07:01:33;;;;;;;6.63;2.60;;;23.50;99.90;;;;;;4976996;23;20778;-90
2022/06/20 07:04:12;;;;;;;10.25;2.75;;;23.50;99.90;;;;;;4997453;28;20037;-89
2022/06/20 07:06:52;;;;;;;5.43;2.95;;;23.30;99.90;;;;;;5009864;28;20026;-90
2022/06/20 07:09:30;;;;;;;6.72;2.80;;;23.30;99.90;;;;;;5012213;28;20084;-90
2022/06/20 07:12:23;;;;;;;7.53;2.83;;;23.30;99.90;;;;;;5015006;28;20082;-90
2022/06/20 07:15:13;;;;;;;7.72;3.03;;;23.20;99.90;;;;;;4991415;28;20030;-90
2022/06/20 07:18:01;;;;;;;5.32;2.67;;;23.10;99.90;;;;;;5008459;28;20101;-89
2022/06/20 07:20:47;;;;;;;5.97;2.85;;;23.10;99.90;;;;;;5011910;28;20030;-90
2022/06/20 07:23:20;;;;;;;5.32;2.90;;;23.20;99.90;;;;;;5009036;28;20028;-88
2022/06/20 07:25:50;;;;;;;14.23;2.80;;;23.40;99.90;;;;;;4993908;28;20053;-90
2022/06/20 07:28:35;;;;;;;10.63;3.67;;;23.70;99.90;;;;;;4990019;28;20018;-90
2022/06/20 07:31:23;;;;;;;5.55;2.67;;;24.00;99.90;;;;;;4991687;28;20096;-90
2022/06/20 07:34:11;;;;;;;5.45;2.90;;;24.20;99.90;;;;;;5011579;28;20108;-92
2022/06/20 07:36:51;;;;;;;6.07;2.50;;;24.50;99.90;;;;;;4988584;28;20053;-92
2022/06/20 07:39:29;;;;;;;5.60;2.47;;;24.50;99.90;;;;;;4991375;28;20022;-91
2022/06/20 07:42:07;;;;;;;5.65;2.22;;;24.60;99.90;;;;;;4995862;28;20018;-91
2022/06/20 07:44:57;;;;;;;4.15;2.03;;;24.60;99.90;;;;;;4995105;28;20030;-90
2022/06/20 07:48:02;;;;;;;5.97;2.27;;;24.70;99.90;;;;;;4993654;28;20075;-92
2022/06/20 07:50:39;;;;;;;4.53;2.13;;;24.90;99.90;;;;;;4987221;28;20038;-91
2022/06/20 07:57:19;;;;;;;6.93;2.58;;;25.00;99.90;;;;;;4966547;28;20099;-92
2022/06/20 08:11:04;;;;;;;6.95;2.22;;;25.70;99.90;;;;;;4990184;28;20046;-92
2022/06/20 08:21:04;;;;;;;;;;;;;;;;;;;;;
2022/06/20 12:26:05;;;;;;;1.88;0.85;;;28.40;94.00;;;;;;1255071;26;20049;-89
2022/06/20 12:29:20;;;;;;;2.20;0.70;;;28.10;95.10;;;;;;5038560;28;20022;-88
2022/06/20 12:35:39;;;;;;;2.38;0.70;;;28.10;94.20;;;;;;5017853;28;20033;-89
2022/06/20 12:38:35;;;;;;;1.80;0.68;;;28.50;93.70;;;;;;5022903;28;20028;-88
2022/06/20 12:44:08;;;;;;;3.50;0.60;;;28.20;93.20;;;;;;5004570;28;20050;-88
2022/06/20 12:46:57;;;;;;;3.30;1.00;;;28.70;93.10;;;;;;5000968;28;20768;-89
2022/06/20 12:56:36;;;;;;;5.07;1.33;;;29.00;94.00;;;;;;5001217;28;20030;-88
2022/06/20 13:06:19;;;;;;;3.47;1.00;;;29.80;93.10;;;;;;4995653;28;20064;-90
2022/06/20 13:09:28;;;;;;;3.55;1.20;;;29.10;93.60;;;;;;4971243;28;20042;-89
2022/06/20 13:12:43;;;;;;;2.88;1.10;;;27.80;94.40;;;;;;4971438;28;20022;-88
2022/06/20 13:15:40;;;;;;;3.25;1.63;;;27.40;95.00;;;;;;4974557;28;20034;-88
2022/06/20 13:22:11;;;;;;;3.90;1.33;;;28.20;95.20;;;;;;4952987;28;20038;-88
2022/06/20 13:25:16;;;;;;;3.65;1.17;;;28.80;94.30;;;;;;4993900;28;20047;-88
2022/06/20 13:28:34;;;;;;;3.25;1.42;;;28.30;94.60;;;;;;4917024;29;20186;-88
2022/06/20 13:31:50;;;;;;;;;;;;;;;;;;;;;
2022/06/20 13:34:50;;;;;;;2.90;1.50;;;27.10;95.60;;;;;;4929259;29;20033;-88
2022/06/20 13:38:17;;;;;;;4.55;1.60;;;26.60;96.30;;;;;;4917847;29;20509;-89
2022/06/20 13:41:34;;;;;;;4.35;1.75;;;26.30;97.70;;;;;;4888672;29;20406;-88
2022/06/20 13:44:21;;;;;;;2.70;1.30;;;26.10;97.80;;;;;;4886640;29;20496;-89
2022/06/20 13:50:20;;;;;;;2.75;1.45;;;25.50;98.80;;;;;;4871185;29;20047;-89
2022/06/20 13:53:18;;;;;;;4.13;1.33;;;25.40;99.10;;;;;;4944089;28;20460;-89
2022/06/20 13:56:32;;;;;;;2.58;1.38;;;25.30;99.00;;;;;;4942016;29;20090;-88
2022/06/20 13:59:49;;;;;;;4.82;1.30;;;24.90;99.80;;;;;;4976829;28;20121;-90
2022/06/20 14:03:09;;;;;;;2.75;1.10;;;24.80;99.80;;;;;;4972052;23;20109;-89
2022/06/20 14:06:21;;;;;;;2.38;1.15;;;24.70;99.90;;;;;;4994812;28;20034;-89
2022/06/20 14:09:22;;;;;;;;;;;;;;;;;;;;;
2022/06/20 14:12:22;;;;;;;3.92;1.63;;;24.00;99.90;;;;;;4994822;28;20000;-89
2022/06/20 14:18:50;;;;;;;2.53;1.02;;;23.80;99.90;;;;;;4924430;29;20028;-88
2022/06/20 14:21:55;;;;;;;;;;;;;;;;;;;;;
2022/06/20 14:29:06;;;;;;;;;;;;;;;;;;;;;
2022/06/20 14:46:07;;;;;;;2.75;0.95;;;23.40;99.90;;;;;;4840085;29;20041;-90
2022/06/20 14:49:18;;;;;;;4.40;1.05;;;23.40;99.90;;;;;;4785498;29;20046;-88
2022/06/20 14:52:43;;;;;;;3.53;1.20;;;23.50;99.90;;;;;;4918763;29;20274;-89
2022/06/20 14:59:00;;;;;;;3.25;1.10;;;23.50;99.90;;;;;;4968525;28;20026;-89
2022/06/20 15:02:04;;;;;;;2.30;1.00;;;23.40;99.90;;;;;;4973329;28;20046;-90
2022/06/20 15:05:39;;;;;;;;;;;;;;;;;;;;;
2022/06/20 15:08:36;;;;;;;2.38;1.13;;;23.70;99.90;;;;;;4921416;29;20217;-91
2022/06/20 15:11:25;;;;;;;3.42;1.20;;;24.80;99.90;;;;;;4922751;29;20055;-90
2022/06/20 15:14:37;;;;;;;;;;;;;;;;;;;;;
2022/06/20 15:17:34;;;;;;;2.28;1.00;;;26.10;99.90;;;;;;4941511;28;20098;-89
2022/06/20 16:16:01;;;;;;;2.35;1.33;;;26.00;98.00;;;;;;1500201;26;20037;-89
2022/06/20 16:19:05;;;;;;;4.35;0.93;;;25.70;98.60;;;;;;4936507;29;20163;-88
2022/06/20 16:22:17;;;;;;;1.95;1.13;;;26.10;98.00;;;;;;5005647;28;20076;-88
2022/06/20 16:25:45;;;;;;;;;;;;;;;;;;;;;
2022/06/20 16:46:46;;;;;;;2.42;1.10;;;24.00;99.90;;;;;;4916750;29;20040;-92
2022/06/20 17:07:28;;;;;;;4.10;1.58;;;23.80;99.90;;;;;;4793134;29;20034;-89
2022/06/20 17:10:44;;;;;;;;;;;;;;;;;;;;;
2022/06/20 17:17:09;;;;;;;2.28;0.95;;;23.60;99.90;;;;;;4981224;28;20078;-89
2022/06/20 17:30:44;;;;;;;1.58;1.00;;;22.80;99.90;;;;;;4976492;28;20030;-91
2022/06/20 17:33:40;;;;;;;2.92;0.80;;;22.70;99.90;;;;;;4985349;28;20030;-91
2022/06/20 17:43:36;;;;;;;1.83;0.75;;;22.20;99.90;;;;;;4978665;28;20079;-90
2022/06/20 17:47:05;;;;;;;;;;;;;;;;;;;;;
2022/06/20 18:04:40;;;;;;;;;;;;;;;;;;;;;
2022/06/20 18:11:14;;;;;;;1.55;0.80;;;21.90;99.90;;;;;;4903315;28;20031;-88
2022/06/20 18:18:04;;;;;;;1.65;0.70;;;21.70;99.90;;;;;;4935046;29;20062;-88
2022/06/20 18:21:09;;;;;;;;;;;;;;;;;;;;;
2022/06/20 18:41:04;;;;;;;;;;;;;;;;;;;;;
2022/06/20 18:54:25;;;;;;;;;;;21.20;99.90;;;;;;4900684;29;20072;-89
2022/06/20 19:02:29;;;;;;;1.20;0.50;;;21.00;99.90;;;;;;5021868;23;20050;-86
2022/06/20 19:05:20;;;;;;;1.63;0.70;;;21.00;99.90;;;;;;4997528;28;20157;-87
2022/06/20 19:08:24;;;;;;;1.02;0.55;;;20.90;99.90;;;;;;5007322;28;20112;-86
2022/06/20 19:11:21;;;;;;;1.60;0.70;;;20.90;99.90;;;;;;4998823;28;20021;-86
2022/06/20 19:14:10;;;;;;;1.30;0.52;;;20.80;99.90;;;;;;5014972;28;20457;-85
2022/06/20 19:17:02;;;;;;;2.05;0.52;;;20.70;99.90;;;;;;4998391;28;20121;-86
2022/06/20 19:20:24;;;;;;;0.98;0.50;;;20.70;99.90;;;;;;5016440;28;20026;-86
2022/06/20 19:22:53;;;;;;;;;;;20.70;99.90;;;;;;5017742;28;20045;-89
2022/06/20 19:25:24;;;;;;;1.88;0.50;;;20.50;99.90;;;;;;5000621;28;19905;-88
2022/06/20 19:28:05;;;;;;;1.67;0.60;;;20.30;99.90;;;;;;5017216;28;20021;-87
2022/06/20 19:30:55;;;;;;;1.75;0.60;;;20.30;99.90;;;;;;5011970;28;20053;-86
2022/06/20 19:33:41;;;;;;;1.10;0.50;;;20.20;99.90;;;;;;4998895;28;20033;-87
2022/06/20 19:36:22;;;;;;;2.65;0.95;;;20.20;99.90;;;;;;4995760;28;20148;-87
2022/06/20 19:39:11;;;;;;;1.15;0.50;;;19.90;99.90;;;;;;4996463;28;20108;-87
2022/06/20 19:41:41;;;;;;;0.93;0.50;;;19.80;99.90;;;;;;4991779;28;20041;-89
2022/06/20 19:44:48;;;;;;;0.88;0.50;;;19.70;99.90;;;;;;5012229;28;20038;-87
2022/06/20 19:47:26;;;;;;;2.05;0.60;;;19.60;99.90;;;;;;4914274;29;20031;-84
2022/06/20 19:50:26;;;;;;;1.05;0.43;;;19.70;99.90;;;;;;4928756;29;20035;-87
2022/06/20 19:53:05;;;;;;;0.85;0.40;;;19.80;99.90;;;;;;4992028;28;20109;-89
2022/06/20 19:55:58;;;;;;;1.83;0.82;;;19.80;99.90;;;;;;4997082;28;20053;-89
2022/06/20 19:59:07;;;;;;;1.02;0.40;;;19.70;99.90;;;;;;4987540;28;20022;-88
2022/06/20 20:01:33;;;;;;;1.10;0.45;;;19.70;99.90;;;;;;4998323;28;20087;-89
2022/06/20 20:04:19;;;;;;;1.30;0.50;;;19.80;99.90;;;;;;5012360;28;20025;-89
2022/06/20 20:07:28;;;;;;;1.13;0.52;;;19.70;99.90;;;;;;5012677;28;20022;-89
2022/06/20 20:10:09;;;;;;;1.27;0.50;;;19.70;99.90;;;;;;4991852;28;20029;-87
2022/06/20 20:12:36;;;;;;;1.55;0.57;;;19.70;99.90;;;;;;5013388;28;20121;-88
2022/06/20 20:15:14;;;;;;;1.35;0.52;;;19.70;99.90;;;;;;5023216;28;20490;-87
2022/06/20 20:18:20;;;;;;;1.10;0.50;;;19.60;99.90;;;;;;5003148;28;20026;-87
2022/06/20 20:21:12;;;;;;;1.40;0.30;;;19.60;99.90;;;;;;5017673;28;20033;-87
2022/06/20 20:23:55;;;;;;;0.93;0.30;;;19.50;99.90;;;;;;5005157;28;20747;-87
2022/06/20 20:26:27;;;;;;;1.10;0.57;;;19.40;99.90;;;;;;5011559;28;20028;-88
2022/06/20 20:29:21;;;;;;;1.77;0.43;;;19.50;99.90;;;;;;5019001;28;20017;-84
2022/06/20 20:32:09;;;;;;;1.55;0.60;;;19.50;99.90;;;;;;4988472;28;20052;-86
2022/06/20 20:34:51;;;;;;;1.42;0.60;;;19.40;99.90;;;;;;4995801;28;20030;-87
2022/06/20 20:37:44;;;;;;;2.45;0.50;;;19.40;99.90;;;;;;5007638;28;20036;-85
2022/06/20 20:40:42;;;;;;;0.75;0.30;;;19.20;99.90;;;;;;4995524;28;20578;-87
2022/06/20 20:43:41;;;;;;;0.60;0.35;;;19.30;99.90;;;;;;4995894;28;20026;-87
2022/06/20 20:46:18;;;;;;;1.00;0.40;;;19.20;99.90;;;;;;4995437;28;20514;-87
2022/06/20 20:48:59;;;;;;;1.08;0.30;;;19.10;99.90;;;;;;5003812;28;20406;-88
2022/06/20 20:51:26;;;;;;;1.20;0.40;;;19.10;99.90;;;;;;4998304;28;20033;-87
2022/06/20 20:54:27;;;;;;;1.40;0.57;;;19.00;99.90;;;;;;4995292;28;20095;-87
2022/06/20 20:57:01;;;;;;;0.90;0.35;;;19.00;99.90;;;;;;4977323;28;20129;-87
2022/06/20 20:59:41;;;;;;;0.70;0.38;;;18.90;99.90;;;;;;5006891;28;20479;-87
2022/06/20 21:02:20;;;;;;;0.80;0.40;;;18.90;99.90;;;;;;5001274;28;20080;-87
2022/06/20 21:05:07;;;;;;;0.88;0.38;;;18.90;99.90;;;;;;4997788;28;20061;-87
2022/06/20 21:08:06;;;;;;;0.57;0.30;;;18.80;99.90;;;;;;5011750;28;20034;-87
2022/06/20 21:10:47;;;;;;;1.40;0.40;;;18.90;99.90;;;;;;4997336;28;20056;-87
2022/06/20 21:13:37;;;;;;;0.50;0.30;;;18.90;99.90;;;;;;5016926;28;20026;-86
2022/06/20 21:16:13;;;;;;;1.55;0.60;;;18.80;99.90;;;;;;4999521;28;20022;-86
2022/06/20 21:18:41;;;;;;;0.70;0.30;;;18.60;99.90;;;;;;5006487;28;20018;-86
2022/06/20 21:21:29;;;;;;;0.65;0.30;;;18.50;99.90;;;;;;5017076;28;20413;-87
2022/06/20 21:23:59;;;;;;;2.03;0.30;;;18.40;99.90;;;;;;4996923;28;20088;-86
2022/06/20 21:26:35;;;;;;;1.05;0.32;;;18.30;99.90;;;;;;5020170;28;20025;-86
2022/06/20 21:29:12;;;;;;;1.65;0.43;;;18.20;99.90;;;;;;5012850;28;20025;-86
2022/06/20 21:32:03;;;;;;;0.80;0.32;;;18.30;99.90;;;;;;4998582;28;20029;-86
2022/06/20 21:34:34;;;;;;;1.35;0.50;;;18.20;99.90;;;;;;4999991;28;20044;-86
2022/06/20 21:37:23;;;;;;;1.25;0.60;;;18.20;99.90;;;;;;4999103;28;20034;-87
2022/06/20 21:40:07;;;;;;;0.93;0.20;;;18.20;99.90;;;;;;5001115;28;20071;-85
2022/06/20 21:42:43;;;;;;;0.50;0.30;;;18.30;99.90;;;;;;5007510;28;20033;-86
2022/06/20 21:45:26;;;;;;;0.60;0.20;;;18.30;99.90;;;;;;5005311;28;20060;-86
2022/06/20 21:48:19;;;;;;;0.52;0.30;;;18.20;99.90;;;;;;5003453;28;20116;-85
2022/06/20 21:50:54;;;;;;;0.88;0.30;;;18.30;99.90;;;;;;4981933;28;20069;-87
2022/06/20 21:54:03;;;;;;;0.52;0.22;;;18.10;99.90;;;;;;5002397;28;20068;-87
2022/06/20 21:56:45;;;;;;;0.77;0.30;;;18.20;99.90;;;;;;4990293;28;20403;-86
2022/06/20 21:59:18;;;;;;;1.10;0.38;;;18.20;99.90;;;;;;4993852;28;20052;-86
2022/06/20 22:04:45;;;;;;;1.60;0.30;;;17.90;99.90;;;;;;5019257;28;20036;-86
2022/06/20 22:07:15;;;;;;;0.65;0.22;;;17.90;99.90;;;;;;5005255;28;20018;-86
2022/06/20 22:09:58;;;;;;;1.00;0.28;;;17.90;99.90;;;;;;4998198;28;20113;-86
2022/06/20 22:12:32;;;;;;;0.68;0.30;;;17.70;99.90;;;;;;5008399;28;20049;-86
2022/06/20 22:15:06;;;;;;;1.23;0.32;;;17.70;99.90;;;;;;4998582;28;20022;-86
2022/06/20 22:17:48;;;;;;;0.60;0.30;;;17.70;99.90;;;;;;5022322;28;20049;-86
2022/06/20 22:20:32;;;;;;;0.30;0.10;;;17.70;99.90;;;;;;5017923;28;20024;-87
2022/06/20 22:23:04;;;;;;;1.02;0.30;;;17.50;99.90;;;;;;4999307;28;20091;-86
2022/06/20 22:25:47;;;;;;;0.65;0.20;;;17.60;99.90;;;;;;5001461;28;20022;-86
2022/06/20 22:28:27;;;;;;;1.27;0.30;;;17.60;99.90;;;;;;5002176;28;20496;-86
2022/06/20 22:31:10;;;;;;;1.35;0.30;;;17.60;99.90;;;;;;5001480;28;20034;-86
2022/06/20 22:33:39;;;;;;;0.80;0.30;;;17.60;99.90;;;;;;5000645;28;20120;-88
2022/06/20 22:36:24;;;;;;;0.70;0.20;;;17.50;99.90;;;;;;5001308;28;20469;-87
2022/06/20 22:38:53;;;;;;;0.60;0.20;;;17.40;99.90;;;;;;5001171;28;20124;-86
2022/06/20 22:41:32;;;;;;;0.88;0.30;;;17.40;99.90;;;;;;5019813;28;20382;-86
2022/06/20 22:44:06;;;;;;;0.45;0.17;;;17.40;99.90;;;;;;4998170;28;20269;-86